sensor_id;sensor_type;location;lat;lon;timestamp;temperature;humidity
23748;DHT22;12054;53.662;10.126;2022-10-31T00:00:18;13.20;99.90
23748;DHT22;12054;53.662;10.126;2022-10-31T00:02:45;13.10;99.90
23748;DHT22;12054;53.662;10.126;2022-10-31T00:05:10;13.10;99.90
23748;DHT22;12054;53.662;10.126;2022-10-31T00:07:36;13.10;99.90
23748;DHT22;12054;53.662;10.126;2022-10-31T00:10:01;13.10;99.90
23748;DHT22;12054;53.662;10.126;2022-10-31T00:12:27;13.10;99.90
23748;DHT22;12054;53.662;10.126;2022-10-31T00:14:52;13.10;99.90
23748;DHT22;12054;53.662;10.126;2022-10-31T00:17:18;13.00;99.90
23748;DHT22;12054;53.662;10.126;2022-10-31T00:19:44;13.10;99.90
23748;DHT22;12054;53.662;10.126;2022-10-31T00:22:09;13.10;99.90
23748;DHT22;12054;53.662;10.126;2022-10-31T00:24:35;13.00;99.90
23748;DHT22;12054;53.662;10.126;2022-10-31T00:27:00;13.00;99.90
23748;DHT22;12054;53.662;10.126;2022-10-31T00:29:26;13.00;99.90
23748;DHT22;12054;53.662;10.126;2022-10-31T00:31:52;13.00;99.90
23748;DHT22;12054;53.662;10.126;2022-10-31T00:34:18;13.00;99.90
23748;DHT22;12054;53.662;10.126;2022-10-31T00:36:43;13.00;99.90
23748;DHT22;12054;53.662;10.126;2022-10-31T00:39:09;13.00;99.90
23748;DHT22;12054;53.662;10.126;2022-10-31T00:41:35;13.00;99.90
23748;DHT22;12054;53.662;10.126;2022-10-31T00:44:00;13.00;99.90
23748;DHT22;12054;53.662;10.126;2022-10-31T00:46:26;12.90;99.90
23748;DHT22;12054;53.662;10.126;2022-10-31T00:48:51;13.00;99.90
23748;DHT22;12054;53.662;10.126;2022-10-31T00:51:17;12.90;99.90
23748;DHT22;12054;53.662;10.126;2022-10-31T00:53:42;12.90;99.90
23748;DHT22;12054;53.662;10.126;2022-10-31T00:56:08;12.90;99.90
23748;DHT22;12054;53.662;10.126;2022-10-31T00:58:33;12.90;99.90
23748;DHT22;12054;53.662;10.126;2022-10-31T01:00:59;12.90;99.90
23748;DHT22;12054;53.662;10.126;2022-10-31T01:03:30;12.90;99.90
23748;DHT22;12054;53.662;10.126;2022-10-31T01:06:08;12.90;99.90
23748;DHT22;12054;53.662;10.126;2022-10-31T01:08:35;12.90;99.90
23748;DHT22;12054;53.662;10.126;2022-10-31T01:11:10;12.80;99.90
23748;DHT22;12054;53.662;10.126;2022-10-31T01:13:35;12.80;99.90
23748;DHT22;12054;53.662;10.126;2022-10-31T01:16:03;12.80;99.90
23748;DHT22;12054;53.662;10.126;2022-10-31T01:18:29;12.80;99.90
23748;DHT22;12054;53.662;10.126;2022-10-31T01:20:59;12.80;99.90
23748;DHT22;12054;53.662;10.126;2022-10-31T01:23:25;12.80;99.90
23748;DHT22;12054;53.662;10.126;2022-10-31T01:25:59;12.80;99.90
23748;DHT22;12054;53.662;10.126;2022-10-31T01:28:25;12.80;99.90
23748;DHT22;12054;53.662;10.126;2022-10-31T01:30:50;12.80;99.90
23748;DHT22;12054;53.662;10.126;2022-10-31T01:33:16;12.70;99.90
23748;DHT22;12054;53.662;10.126;2022-10-31T01:35:41;12.70;99.90
23748;DHT22;12054;53.662;10.126;2022-10-31T01:38:07;12.70;99.90
23748;DHT22;12054;53.662;10.126;2022-10-31T01:40:32;12.70;99.90
23748;DHT22;12054;53.662;10.126;2022-10-31T01:42:57;12.70;99.90
23748;DHT22;12054;53.662;10.126;2022-10-31T01:45:23;12.70;99.90
23748;DHT22;12054;53.662;10.126;2022-10-31T01:47:49;12.70;99.90
23748;DHT22;12054;53.662;10.126;2022-10-31T01:50:32;12.60;99.90
23748;DHT22;12054;53.662;10.126;2022-10-31T01:53:01;12.60;99.90
23748;DHT22;12054;53.662;10.126;2022-10-31T01:55:30;12.60;99.90
23748;DHT22;12054;53.662;10.126;2022-10-31T01:58:02;12.60;99.90
23748;DHT22;12054;53.662;10.126;2022-10-31T02:00:30;12.60;99.90
23748;DHT22;12054;53.662;10.126;2022-10-31T02:02:56;12.60;99.90
23748;DHT22;12054;53.662;10.126;2022-10-31T02:05:26;12.60;99.90
23748;DHT22;12054;53.662;10.126;2022-10-31T02:07:58;12.60;99.90
23748;DHT22;12054;53.662;10.126;2022-10-31T02:10:26;12.60;99.90
23748;DHT22;12054;53.662;10.126;2022-10-31T02:12:54;12.60;99.90
23748;DHT22;12054;53.662;10.126;2022-10-31T02:15:21;12.60;99.90
23748;DHT22;12054;53.662;10.126;2022-10-31T02:17:46;12.50;99.90
23748;DHT22;12054;53.662;10.126;2022-10-31T02:20:18;12.50;99.90
23748;DHT22;12054;53.662;10.126;2022-10-31T02:29:20;12.50;99.90
23748;DHT22;12054;53.662;10.126;2022-10-31T02:38:10;12.50;99.90
23748;DHT22;12054;53.662;10.126;2022-10-31T02:40:28;12.50;99.90
23748;DHT22;12054;53.662;10.126;2022-10-31T02:43:08;12.50;99.90
23748;DHT22;12054;53.662;10.126;2022-10-31T02:45:50;12.50;99.90
23748;DHT22;12054;53.662;10.126;2022-10-31T02:48:22;12.50;99.90
23748;DHT22;12054;53.662;10.126;2022-10-31T02:50:53;12.50;99.90
23748;DHT22;12054;53.662;10.126;2022-10-31T02:53:20;12.50;99.90
23748;DHT22;12054;53.662;10.126;2022-10-31T02:55:56;12.50;99.90
23748;DHT22;12054;53.662;10.126;2022-10-31T02:58:24;12.50;99.90
23748;DHT22;12054;53.662;10.126;2022-10-31T03:06:29;12.50;99.90
23748;DHT22;12054;53.662;10.126;2022-10-31T03:09:10;12.50;99.90
23748;DHT22;12054;53.662;10.126;2022-10-31T03:11:57;12.50;99.90
23748;DHT22;12054;53.662;10.126;2022-10-31T03:14:51;12.50;99.90
23748;DHT22;12054;53.662;10.126;2022-10-31T03:18:13;12.50;99.90
23748;DHT22;12054;53.662;10.126;2022-10-31T03:20:22;12.50;99.90
23748;DHT22;12054;53.662;10.126;2022-10-31T03:22:49;12.50;99.90
23748;DHT22;12054;53.662;10.126;2022-10-31T03:25:16;12.50;99.90
23748;DHT22;12054;53.662;10.126;2022-10-31T03:27:43;12.50;99.90
23748;DHT22;12054;53.662;10.126;2022-10-31T03:30:10;12.50;99.90
23748;DHT22;12054;53.662;10.126;2022-10-31T03:32:45;12.50;99.90
23748;DHT22;12054;53.662;10.126;2022-10-31T03:35:15;12.50;99.90
23748;DHT22;12054;53.662;10.126;2022-10-31T03:37:40;12.50;99.90
23748;DHT22;12054;53.662;10.126;2022-10-31T03:40:08;12.50;99.90
23748;DHT22;12054;53.662;10.126;2022-10-31T03:42:39;12.40;99.90
23748;DHT22;12054;53.662;10.126;2022-10-31T03:45:23;12.40;99.90
23748;DHT22;12054;53.662;10.126;2022-10-31T03:47:50;12.40;99.90
23748;DHT22;12054;53.662;10.126;2022-10-31T03:50:18;12.50;99.90
23748;DHT22;12054;53.662;10.126;2022-10-31T03:52:54;12.40;99.90
23748;DHT22;12054;53.662;10.126;2022-10-31T03:55:39;12.50;99.90
23748;DHT22;12054;53.662;10.126;2022-10-31T03:58:12;12.40;99.90
23748;DHT22;12054;53.662;10.126;2022-10-31T04:00:44;12.40;99.90
23748;DHT22;12054;53.662;10.126;2022-10-31T04:03:17;12.40;99.90
23748;DHT22;12054;53.662;10.126;2022-10-31T04:05:46;12.40;99.90
23748;DHT22;12054;53.662;10.126;2022-10-31T04:08:17;12.40;99.90
23748;DHT22;12054;53.662;10.126;2022-10-31T04:10:46;12.40;99.90
23748;DHT22;12054;53.662;10.126;2022-10-31T04:13:17;12.40;99.90
23748;DHT22;12054;53.662;10.126;2022-10-31T04:15:45;12.40;99.90
23748;DHT22;12054;53.662;10.126;2022-10-31T04:18:11;12.40;99.90
23748;DHT22;12054;53.662;10.126;2022-10-31T04:20:39;12.40;99.90
23748;DHT22;12054;53.662;10.126;2022-10-31T04:23:05;12.40;99.90
23748;DHT22;12054;53.662;10.126;2022-10-31T04:25:33;12.40;99.90
23748;DHT22;12054;53.662;10.126;2022-10-31T04:27:59;12.50;99.90
23748;DHT22;12054;53.662;10.126;2022-10-31T04:30:24;12.40;99.90
23748;DHT22;12054;53.662;10.126;2022-10-31T04:32:50;12.50;99.90
23748;DHT22;12054;53.662;10.126;2022-10-31T04:35:15;12.50;99.90
23748;DHT22;12054;53.662;10.126;2022-10-31T04:37:41;12.50;99.90
23748;DHT22;12054;53.662;10.126;2022-10-31T04:40:07;12.60;99.90
23748;DHT22;12054;53.662;10.126;2022-10-31T04:42:33;12.50;99.90
23748;DHT22;12054;53.662;10.126;2022-10-31T04:44:58;12.50;99.90
23748;DHT22;12054;53.662;10.126;2022-10-31T04:47:24;12.50;99.90
23748;DHT22;12054;53.662;10.126;2022-10-31T04:49:49;12.60;99.90
23748;DHT22;12054;53.662;10.126;2022-10-31T04:52:14;12.60;99.90
23748;DHT22;12054;53.662;10.126;2022-10-31T04:54:40;12.60;99.90
23748;DHT22;12054;53.662;10.126;2022-10-31T04:57:05;12.60;99.90
23748;DHT22;12054;53.662;10.126;2022-10-31T04:59:31;12.60;99.90
23748;DHT22;12054;53.662;10.126;2022-10-31T05:01:56;12.70;99.90
23748;DHT22;12054;53.662;10.126;2022-10-31T05:04:22;12.70;99.90
23748;DHT22;12054;53.662;10.126;2022-10-31T05:06:47;12.70;99.90
23748;DHT22;12054;53.662;10.126;2022-10-31T05:09:13;12.70;99.90
23748;DHT22;12054;53.662;10.126;2022-10-31T05:11:39;12.70;99.90
23748;DHT22;12054;53.662;10.126;2022-10-31T05:14:04;12.80;99.90
23748;DHT22;12054;53.662;10.126;2022-10-31T05:16:30;12.80;99.90
23748;DHT22;12054;53.662;10.126;2022-10-31T05:18:55;12.80;99.90
23748;DHT22;12054;53.662;10.126;2022-10-31T05:21:21;12.80;99.90
23748;DHT22;12054;53.662;10.126;2022-10-31T05:23:46;12.80;99.90
23748;DHT22;12054;53.662;10.126;2022-10-31T05:26:12;12.80;99.90
23748;DHT22;12054;53.662;10.126;2022-10-31T05:28:37;12.80;99.90
23748;DHT22;12054;53.662;10.126;2022-10-31T05:31:03;12.90;99.90
23748;DHT22;12054;53.662;10.126;2022-10-31T05:33:28;12.90;99.90
23748;DHT22;12054;53.662;10.126;2022-10-31T05:35:54;12.90;99.90
23748;DHT22;12054;53.662;10.126;2022-10-31T05:38:19;12.90;99.90
23748;DHT22;12054;53.662;10.126;2022-10-31T05:40:45;12.90;99.90
23748;DHT22;12054;53.662;10.126;2022-10-31T05:43:10;12.90;99.90
23748;DHT22;12054;53.662;10.126;2022-10-31T05:45:36;12.90;99.90
23748;DHT22;12054;53.662;10.126;2022-10-31T05:48:02;12.90;99.90
23748;DHT22;12054;53.662;10.126;2022-10-31T05:50:29;12.90;99.90
23748;DHT22;12054;53.662;10.126;2022-10-31T05:53:05;13.00;99.90
23748;DHT22;12054;53.662;10.126;2022-10-31T05:55:31;13.00;99.90
23748;DHT22;12054;53.662;10.126;2022-10-31T05:57:57;13.00;99.90
23748;DHT22;12054;53.662;10.126;2022-10-31T06:00:24;13.00;99.90
23748;DHT22;12054;53.662;10.126;2022-10-31T06:03:01;12.90;99.90
23748;DHT22;12054;53.662;10.126;2022-10-31T06:05:27;12.90;99.90
23748;DHT22;12054;53.662;10.126;2022-10-31T06:07:53;13.00;99.90
23748;DHT22;12054;53.662;10.126;2022-10-31T06:10:18;13.00;99.90
23748;DHT22;12054;53.662;10.126;2022-10-31T06:12:46;13.00;99.90
23748;DHT22;12054;53.662;10.126;2022-10-31T06:15:12;13.00;99.90
23748;DHT22;12054;53.662;10.126;2022-10-31T06:17:37;13.00;99.90
23748;DHT22;12054;53.662;10.126;2022-10-31T06:20:03;13.00;99.90
23748;DHT22;12054;53.662;10.126;2022-10-31T06:22:29;13.00;99.90
23748;DHT22;12054;53.662;10.126;2022-10-31T06:24:55;13.10;99.90
23748;DHT22;12054;53.662;10.126;2022-10-31T06:27:20;13.10;99.90
23748;DHT22;12054;53.662;10.126;2022-10-31T06:29:46;13.10;99.90
23748;DHT22;12054;53.662;10.126;2022-10-31T06:32:12;13.10;99.90
23748;DHT22;12054;53.662;10.126;2022-10-31T06:34:39;13.10;99.90
23748;DHT22;12054;53.662;10.126;2022-10-31T06:37:06;13.10;99.90
23748;DHT22;12054;53.662;10.126;2022-10-31T06:39:32;13.10;99.90
23748;DHT22;12054;53.662;10.126;2022-10-31T06:41:58;13.10;99.90
23748;DHT22;12054;53.662;10.126;2022-10-31T06:44:23;13.10;99.90
23748;DHT22;12054;53.662;10.126;2022-10-31T06:46:49;13.10;99.90
23748;DHT22;12054;53.662;10.126;2022-10-31T06:49:15;13.10;99.90
23748;DHT22;12054;53.662;10.126;2022-10-31T06:51:40;13.10;99.90
23748;DHT22;12054;53.662;10.126;2022-10-31T06:54:06;13.20;99.90
23748;DHT22;12054;53.662;10.126;2022-10-31T06:56:31;13.20;99.90
23748;DHT22;12054;53.662;10.126;2022-10-31T06:58:57;13.10;99.90
23748;DHT22;12054;53.662;10.126;2022-10-31T07:01:22;13.20;99.90
23748;DHT22;12054;53.662;10.126;2022-10-31T07:03:48;13.20;99.90
23748;DHT22;12054;53.662;10.126;2022-10-31T07:06:13;13.20;99.90
23748;DHT22;12054;53.662;10.126;2022-10-31T07:08:39;13.20;99.90
23748;DHT22;12054;53.662;10.126;2022-10-31T07:11:05;13.20;99.90
23748;DHT22;12054;53.662;10.126;2022-10-31T07:13:30;13.20;99.90
23748;DHT22;12054;53.662;10.126;2022-10-31T07:16:01;13.20;99.90
23748;DHT22;12054;53.662;10.126;2022-10-31T07:18:27;13.20;99.90
23748;DHT22;12054;53.662;10.126;2022-10-31T07:20:53;13.20;99.90
23748;DHT22;12054;53.662;10.126;2022-10-31T07:23:18;13.20;99.90
23748;DHT22;12054;53.662;10.126;2022-10-31T07:25:44;13.20;99.90
23748;DHT22;12054;53.662;10.126;2022-10-31T07:28:10;13.20;99.90
23748;DHT22;12054;53.662;10.126;2022-10-31T07:30:36;13.20;99.90
23748;DHT22;12054;53.662;10.126;2022-10-31T07:33:02;13.30;99.90
23748;DHT22;12054;53.662;10.126;2022-10-31T07:35:29;13.20;99.90
23748;DHT22;12054;53.662;10.126;2022-10-31T07:37:54;13.30;99.90
23748;DHT22;12054;53.662;10.126;2022-10-31T07:40:21;13.30;99.90
23748;DHT22;12054;53.662;10.126;2022-10-31T07:42:49;13.30;99.90
23748;DHT22;12054;53.662;10.126;2022-10-31T07:45:17;13.30;99.90
23748;DHT22;12054;53.662;10.126;2022-10-31T07:47:51;13.30;99.90
23748;DHT22;12054;53.662;10.126;2022-10-31T07:50:20;13.30;99.90
23748;DHT22;12054;53.662;10.126;2022-10-31T07:52:46;13.30;99.90
23748;DHT22;12054;53.662;10.126;2022-10-31T07:55:12;13.30;99.90
23748;DHT22;12054;53.662;10.126;2022-10-31T07:57:38;13.30;99.90
23748;DHT22;12054;53.662;10.126;2022-10-31T08:00:06;13.40;99.90
23748;DHT22;12054;53.662;10.126;2022-10-31T08:02:32;13.40;99.90
23748;DHT22;12054;53.662;10.126;2022-10-31T08:04:57;13.40;99.90
23748;DHT22;12054;53.662;10.126;2022-10-31T08:07:25;13.40;99.90
23748;DHT22;12054;53.662;10.126;2022-10-31T08:09:50;13.40;99.90
23748;DHT22;12054;53.662;10.126;2022-10-31T08:12:16;13.40;99.90
23748;DHT22;12054;53.662;10.126;2022-10-31T08:14:41;13.40;99.90
23748;DHT22;12054;53.662;10.126;2022-10-31T08:17:08;13.40;99.90
23748;DHT22;12054;53.662;10.126;2022-10-31T08:19:33;13.40;99.90
23748;DHT22;12054;53.662;10.126;2022-10-31T08:21:59;13.40;99.90
23748;DHT22;12054;53.662;10.126;2022-10-31T08:24:25;13.50;99.90
23748;DHT22;12054;53.662;10.126;2022-10-31T08:26:51;13.50;99.90
23748;DHT22;12054;53.662;10.126;2022-10-31T08:29:17;13.50;99.90
23748;DHT22;12054;53.662;10.126;2022-10-31T08:31:43;13.50;99.90
23748;DHT22;12054;53.662;10.126;2022-10-31T08:34:08;13.50;99.90
23748;DHT22;12054;53.662;10.126;2022-10-31T08:36:34;13.50;99.90
23748;DHT22;12054;53.662;10.126;2022-10-31T08:39:00;13.50;99.90
23748;DHT22;12054;53.662;10.126;2022-10-31T08:41:27;13.50;99.90
23748;DHT22;12054;53.662;10.126;2022-10-31T08:43:52;13.60;99.90
23748;DHT22;12054;53.662;10.126;2022-10-31T08:46:18;13.60;99.90
23748;DHT22;12054;53.662;10.126;2022-10-31T08:48:43;13.60;99.90
23748;DHT22;12054;53.662;10.126;2022-10-31T08:51:10;13.60;99.90
23748;DHT22;12054;53.662;10.126;2022-10-31T08:53:35;13.60;99.90
23748;DHT22;12054;53.662;10.126;2022-10-31T08:56:01;13.60;99.90
23748;DHT22;12054;53.662;10.126;2022-10-31T08:58:27;13.60;99.90
23748;DHT22;12054;53.662;10.126;2022-10-31T09:00:54;13.60;99.90
23748;DHT22;12054;53.662;10.126;2022-10-31T09:03:23;13.70;99.90
23748;DHT22;12054;53.662;10.126;2022-10-31T09:05:50;13.70;99.90
23748;DHT22;12054;53.662;10.126;2022-10-31T09:08:16;13.70;99.90
23748;DHT22;12054;53.662;10.126;2022-10-31T09:10:43;13.70;99.90
23748;DHT22;12054;53.662;10.126;2022-10-31T09:13:09;13.70;99.90
23748;DHT22;12054;53.662;10.126;2022-10-31T09:15:36;13.70;99.90
23748;DHT22;12054;53.662;10.126;2022-10-31T09:18:04;13.70;99.90
23748;DHT22;12054;53.662;10.126;2022-10-31T09:20:31;13.70;99.90
23748;DHT22;12054;53.662;10.126;2022-10-31T09:22:59;13.70;99.90
23748;DHT22;12054;53.662;10.126;2022-10-31T09:25:25;13.80;99.90
23748;DHT22;12054;53.662;10.126;2022-10-31T09:27:55;13.80;99.90
23748;DHT22;12054;53.662;10.126;2022-10-31T09:30:21;13.80;99.90
23748;DHT22;12054;53.662;10.126;2022-10-31T09:32:47;13.80;99.90
23748;DHT22;12054;53.662;10.126;2022-10-31T09:35:12;13.80;99.90
23748;DHT22;12054;53.662;10.126;2022-10-31T09:37:38;13.80;99.90
23748;DHT22;12054;53.662;10.126;2022-10-31T09:40:04;13.80;99.90
23748;DHT22;12054;53.662;10.126;2022-10-31T09:42:51;13.80;99.90
23748;DHT22;12054;53.662;10.126;2022-10-31T09:45:47;13.90;99.90
23748;DHT22;12054;53.662;10.126;2022-10-31T09:51:04;13.90;99.90
23748;DHT22;12054;53.662;10.126;2022-10-31T09:53:35;14.00;99.90
23748;DHT22;12054;53.662;10.126;2022-10-31T09:56:10;13.90;99.90
23748;DHT22;12054;53.662;10.126;2022-10-31T09:58:45;14.00;99.90
23748;DHT22;12054;53.662;10.126;2022-10-31T10:01:34;14.00;99.90
23748;DHT22;12054;53.662;10.126;2022-10-31T10:07:22;14.00;99.90
23748;DHT22;12054;53.662;10.126;2022-10-31T10:09:49;14.10;99.90
23748;DHT22;12054;53.662;10.126;2022-10-31T10:21:12;14.10;99.90
23748;DHT22;12054;53.662;10.126;2022-10-31T10:26:59;14.10;99.90
23748;DHT22;12054;53.662;10.126;2022-10-31T10:29:37;14.10;99.90
23748;DHT22;12054;53.662;10.126;2022-10-31T10:32:12;14.20;99.90
23748;DHT22;12054;53.662;10.126;2022-10-31T10:35:02;14.20;99.90
23748;DHT22;12054;53.662;10.126;2022-10-31T10:37:41;14.20;99.90
23748;DHT22;12054;53.662;10.126;2022-10-31T10:40:16;14.20;99.90
23748;DHT22;12054;53.662;10.126;2022-10-31T10:42:55;14.20;99.90
23748;DHT22;12054;53.662;10.126;2022-10-31T10:45:40;14.30;99.90
23748;DHT22;12054;53.662;10.126;2022-10-31T10:48:43;14.30;99.90
23748;DHT22;12054;53.662;10.126;2022-10-31T10:51:23;14.30;99.90
23748;DHT22;12054;53.662;10.126;2022-10-31T10:59:31;14.40;99.90
23748;DHT22;12054;53.662;10.126;2022-10-31T11:01:58;14.40;99.90
23748;DHT22;12054;53.662;10.126;2022-10-31T11:07:09;14.40;99.90
23748;DHT22;12054;53.662;10.126;2022-10-31T11:09:36;14.50;99.90
23748;DHT22;12054;53.662;10.126;2022-10-31T11:14:50;14.50;99.90
23748;DHT22;12054;53.662;10.126;2022-10-31T11:17:32;14.50;99.90
23748;DHT22;12054;53.662;10.126;2022-10-31T11:20:04;14.60;99.90
23748;DHT22;12054;53.662;10.126;2022-10-31T11:22:31;14.60;99.90
23748;DHT22;12054;53.662;10.126;2022-10-31T11:24:56;14.70;99.90
23748;DHT22;12054;53.662;10.126;2022-10-31T11:27:24;14.70;99.90
23748;DHT22;12054;53.662;10.126;2022-10-31T11:29:50;14.70;99.90
23748;DHT22;12054;53.662;10.126;2022-10-31T11:32:25;14.80;99.90
23748;DHT22;12054;53.662;10.126;2022-10-31T11:34:58;14.80;99.90
23748;DHT22;12054;53.662;10.126;2022-10-31T11:37:30;14.80;99.90
23748;DHT22;12054;53.662;10.126;2022-10-31T11:40:04;14.90;99.90
23748;DHT22;12054;53.662;10.126;2022-10-31T11:42:41;14.90;99.90
23748;DHT22;12054;53.662;10.126;2022-10-31T11:47:50;15.00;99.90
23748;DHT22;12054;53.662;10.126;2022-10-31T11:50:25;15.00;99.90
23748;DHT22;12054;53.662;10.126;2022-10-31T11:52:52;15.10;99.90
23748;DHT22;12054;53.662;10.126;2022-10-31T11:55:38;15.10;99.90
23748;DHT22;12054;53.662;10.126;2022-10-31T11:58:25;15.20;99.90
23748;DHT22;12054;53.662;10.126;2022-10-31T12:00:56;15.30;99.90
23748;DHT22;12054;53.662;10.126;2022-10-31T12:06:00;15.40;99.90
23748;DHT22;12054;53.662;10.126;2022-10-31T12:08:31;15.50;99.90
23748;DHT22;12054;53.662;10.126;2022-10-31T12:14:00;15.60;99.90
23748;DHT22;12054;53.662;10.126;2022-10-31T12:24:45;15.80;99.90
23748;DHT22;12054;53.662;10.126;2022-10-31T12:27:41;15.90;99.90
23748;DHT22;12054;53.662;10.126;2022-10-31T12:30:24;15.90;99.90
23748;DHT22;12054;53.662;10.126;2022-10-31T12:35:40;15.90;99.90
23748;DHT22;12054;53.662;10.126;2022-10-31T12:38:20;16.00;99.90
23748;DHT22;12054;53.662;10.126;2022-10-31T12:41:24;16.00;99.90
23748;DHT22;12054;53.662;10.126;2022-10-31T12:44:05;16.00;99.90
23748;DHT22;12054;53.662;10.126;2022-10-31T12:49:16;16.00;99.90
23748;DHT22;12054;53.662;10.126;2022-10-31T12:52:16;16.10;99.90
23748;DHT22;12054;53.662;10.126;2022-10-31T12:57:44;16.10;99.90
23748;DHT22;12054;53.662;10.126;2022-10-31T13:00:15;16.20;99.90
23748;DHT22;12054;53.662;10.126;2022-10-31T13:02:51;16.20;99.90
23748;DHT22;12054;53.662;10.126;2022-10-31T13:05:36;16.20;99.90
23748;DHT22;12054;53.662;10.126;2022-10-31T13:11:23;16.20;99.90
23748;DHT22;12054;53.662;10.126;2022-10-31T13:14:05;16.30;99.90
23748;DHT22;12054;53.662;10.126;2022-10-31T13:16:36;16.20;99.90
23748;DHT22;12054;53.662;10.126;2022-10-31T13:22:06;16.20;99.90
23748;DHT22;12054;53.662;10.126;2022-10-31T13:24:42;16.20;99.90
23748;DHT22;12054;53.662;10.126;2022-10-31T13:27:21;16.30;99.90
23748;DHT22;12054;53.662;10.126;2022-10-31T13:30:13;16.30;99.90
23748;DHT22;12054;53.662;10.126;2022-10-31T13:38:19;16.30;99.90
23748;DHT22;12054;53.662;10.126;2022-10-31T13:40:53;16.30;99.90
23748;DHT22;12054;53.662;10.126;2022-10-31T13:46:26;16.30;99.90
23748;DHT22;12054;53.662;10.126;2022-10-31T13:48:59;16.20;99.90
23748;DHT22;12054;53.662;10.126;2022-10-31T13:51:31;16.20;99.90
23748;DHT22;12054;53.662;10.126;2022-10-31T13:54:01;16.20;99.90
23748;DHT22;12054;53.662;10.126;2022-10-31T13:56:33;16.20;99.90
23748;DHT22;12054;53.662;10.126;2022-10-31T14:01:35;16.20;99.90
23748;DHT22;12054;53.662;10.126;2022-10-31T14:04:17;16.20;99.90
23748;DHT22;12054;53.662;10.126;2022-10-31T14:07:04;16.10;99.90
23748;DHT22;12054;53.662;10.126;2022-10-31T14:09:48;16.10;99.90
23748;DHT22;12054;53.662;10.126;2022-10-31T14:12:38;16.10;99.90
23748;DHT22;12054;53.662;10.126;2022-10-31T14:15:23;16.10;99.90
23748;DHT22;12054;53.662;10.126;2022-10-31T14:17:55;16.10;99.90
23748;DHT22;12054;53.662;10.126;2022-10-31T14:20:40;16.10;99.90
23748;DHT22;12054;53.662;10.126;2022-10-31T14:23:39;16.10;99.90
23748;DHT22;12054;53.662;10.126;2022-10-31T14:28:48;16.10;99.90
23748;DHT22;12054;53.662;10.126;2022-10-31T14:31:39;16.00;99.90
23748;DHT22;12054;53.662;10.126;2022-10-31T14:34:16;16.00;99.90
23748;DHT22;12054;53.662;10.126;2022-10-31T14:37:10;16.00;99.90
23748;DHT22;12054;53.662;10.126;2022-10-31T14:42:51;16.00;99.90
23748;DHT22;12054;53.662;10.126;2022-10-31T14:45:46;16.00;99.90
23748;DHT22;12054;53.662;10.126;2022-10-31T14:48:43;16.00;99.90
23748;DHT22;12054;53.662;10.126;2022-10-31T14:51:24;16.00;99.90
23748;DHT22;12054;53.662;10.126;2022-10-31T14:53:53;16.00;99.90
23748;DHT22;12054;53.662;10.126;2022-10-31T14:56:30;15.90;99.90
23748;DHT22;12054;53.662;10.126;2022-10-31T14:59:03;16.00;99.90
23748;DHT22;12054;53.662;10.126;2022-10-31T15:01:32;15.90;99.90
23748;DHT22;12054;53.662;10.126;2022-10-31T15:04:07;15.90;99.90
23748;DHT22;12054;53.662;10.126;2022-10-31T15:06:47;16.00;99.90
23748;DHT22;12054;53.662;10.126;2022-10-31T15:09:22;15.90;99.90
23748;DHT22;12054;53.662;10.126;2022-10-31T15:11:48;15.90;99.90
23748;DHT22;12054;53.662;10.126;2022-10-31T15:14:22;15.90;99.90
23748;DHT22;12054;53.662;10.126;2022-10-31T15:16:48;15.90;99.90
23748;DHT22;12054;53.662;10.126;2022-10-31T15:19:20;15.90;99.90
23748;DHT22;12054;53.662;10.126;2022-10-31T15:21:47;15.90;99.90
23748;DHT22;12054;53.662;10.126;2022-10-31T15:24:14;15.90;99.90
23748;DHT22;12054;53.662;10.126;2022-10-31T15:26:45;15.90;99.90
23748;DHT22;12054;53.662;10.126;2022-10-31T15:29:14;15.90;99.90
23748;DHT22;12054;53.662;10.126;2022-10-31T15:31:49;15.90;99.90
23748;DHT22;12054;53.662;10.126;2022-10-31T15:34:21;15.90;99.90
23748;DHT22;12054;53.662;10.126;2022-10-31T15:36:48;15.90;99.90
23748;DHT22;12054;53.662;10.126;2022-10-31T15:39:15;15.90;99.90
23748;DHT22;12054;53.662;10.126;2022-10-31T15:41:51;15.80;99.90
23748;DHT22;12054;53.662;10.126;2022-10-31T15:44:29;15.80;99.90
23748;DHT22;12054;53.662;10.126;2022-10-31T15:47:04;15.70;99.90
23748;DHT22;12054;53.662;10.126;2022-10-31T15:52:19;15.70;99.90
23748;DHT22;12054;53.662;10.126;2022-10-31T15:54:53;15.70;99.90
23748;DHT22;12054;53.662;10.126;2022-10-31T15:57:24;15.60;99.90
23748;DHT22;12054;53.662;10.126;2022-10-31T15:59:51;15.60;99.90
23748;DHT22;12054;53.662;10.126;2022-10-31T16:02:21;15.50;99.90
23748;DHT22;12054;53.662;10.126;2022-10-31T16:04:55;15.50;99.90
23748;DHT22;12054;53.662;10.126;2022-10-31T16:07:22;15.50;99.90
23748;DHT22;12054;53.662;10.126;2022-10-31T16:12:14;15.50;99.90
23748;DHT22;12054;53.662;10.126;2022-10-31T16:14:41;15.40;99.90
23748;DHT22;12054;53.662;10.126;2022-10-31T16:17:11;15.40;99.90
23748;DHT22;12054;53.662;10.126;2022-10-31T16:20:02;15.40;99.90
23748;DHT22;12054;53.662;10.126;2022-10-31T16:22:31;15.30;99.90
23748;DHT22;12054;53.662;10.126;2022-10-31T16:25:10;15.30;99.90
23748;DHT22;12054;53.662;10.126;2022-10-31T16:27:38;15.20;99.90
23748;DHT22;12054;53.662;10.126;2022-10-31T16:30:28;15.20;99.90
23748;DHT22;12054;53.662;10.126;2022-10-31T16:32:56;15.10;99.90
23748;DHT22;12054;53.662;10.126;2022-10-31T16:35:35;15.10;99.90
23748;DHT22;12054;53.662;10.126;2022-10-31T16:38:01;15.10;99.90
23748;DHT22;12054;53.662;10.126;2022-10-31T16:40:27;15.10;99.90
23748;DHT22;12054;53.662;10.126;2022-10-31T16:42:53;15.00;99.90
23748;DHT22;12054;53.662;10.126;2022-10-31T16:45:21;15.00;99.90
23748;DHT22;12054;53.662;10.126;2022-10-31T16:47:47;14.90;99.90
23748;DHT22;12054;53.662;10.126;2022-10-31T16:50:16;14.90;99.90
23748;DHT22;12054;53.662;10.126;2022-10-31T16:52:42;14.80;99.90
23748;DHT22;12054;53.662;10.126;2022-10-31T16:55:14;14.80;99.90
23748;DHT22;12054;53.662;10.126;2022-10-31T16:57:51;14.80;99.90
23748;DHT22;12054;53.662;10.126;2022-10-31T17:00:23;14.70;99.90
23748;DHT22;12054;53.662;10.126;2022-10-31T17:02:51;14.70;99.90
23748;DHT22;12054;53.662;10.126;2022-10-31T17:05:19;14.70;99.90
23748;DHT22;12054;53.662;10.126;2022-10-31T17:07:45;14.70;99.90
23748;DHT22;12054;53.662;10.126;2022-10-31T17:10:12;14.70;99.90
23748;DHT22;12054;53.662;10.126;2022-10-31T17:12:42;14.70;99.90
23748;DHT22;12054;53.662;10.126;2022-10-31T17:15:19;14.60;99.90